sensor_id;sensor_type;location;lat;lon;timestamp;P1;durP1;ratioP1;P2;durP2;ratioP2
33926;SDS011;20485;50.992;5.550;2023-04-01T00:00:54;8.68;;;1.35;;
33926;SDS011;20485;50.992;5.550;2023-04-01T00:03:23;6.60;;;1.13;;
33926;SDS011;20485;50.992;5.550;2023-04-01T00:05:49;7.07;;;0.90;;
33926;SDS011;20485;50.992;5.550;2023-04-01T00:08:15;7.78;;;1.05;;
33926;SDS011;20485;50.992;5.550;2023-04-01T00:10:41;8.45;;;1.38;;
33926;SDS011;20485;50.992;5.550;2023-04-01T00:13:06;7.55;;;1.10;;
33926;SDS011;20485;50.992;5.550;2023-04-01T00:15:33;6.80;;;0.90;;
33926;SDS011;20485;50.992;5.550;2023-04-01T00:17:58;11.73;;;1.20;;
33926;SDS011;20485;50.992;5.550;2023-04-01T00:20:25;6.15;;;1.08;;
33926;SDS011;20485;50.992;5.550;2023-04-01T00:22:51;8.48;;;1.20;;
33926;SDS011;20485;50.992;5.550;2023-04-01T00:25:17;7.32;;;1.23;;
33926;SDS011;20485;50.992;5.550;2023-04-01T00:27:43;6.20;;;1.13;;
33926;SDS011;20485;50.992;5.550;2023-04-01T00:30:09;7.70;;;1.40;;
33926;SDS011;20485;50.992;5.550;2023-04-01T00:32:36;4.30;;;1.10;;
33926;SDS011;20485;50.992;5.550;2023-04-01T00:35:02;4.70;;;1.20;;
33926;SDS011;20485;50.992;5.550;2023-04-01T00:37:29;2.15;;;0.60;;
33926;SDS011;20485;50.992;5.550;2023-04-01T00:39:55;6.28;;;1.88;;
33926;SDS011;20485;50.992;5.550;2023-04-01T00:42:21;6.60;;;1.00;;
33926;SDS011;20485;50.992;5.550;2023-04-01T00:44:50;4.90;;;1.23;;
33926;SDS011;20485;50.992;5.550;2023-04-01T00:47:17;4.32;;;1.00;;
33926;SDS011;20485;50.992;5.550;2023-04-01T00:49:44;3.38;;;1.20;;
33926;SDS011;20485;50.992;5.550;2023-04-01T00:52:12;3.47;;;0.90;;
33926;SDS011;20485;50.992;5.550;2023-04-01T00:54:40;7.97;;;1.13;;
33926;SDS011;20485;50.992;5.550;2023-04-01T00:57:23;9.18;;;1.02;;
33926;SDS011;20485;50.992;5.550;2023-04-01T00:59:54;5.20;;;1.20;;
33926;SDS011;20485;50.992;5.550;2023-04-01T01:02:21;4.60;;;0.85;;
33926;SDS011;20485;50.992;5.550;2023-04-01T01:04:47;5.05;;;1.00;;
33926;SDS011;20485;50.992;5.550;2023-04-01T01:12:47;7.82;;;1.20;;
33926;SDS011;20485;50.992;5.550;2023-04-01T01:18:06;5.60;;;1.45;;
33926;SDS011;20485;50.992;5.550;2023-04-01T01:26:22;13.45;;;1.95;;
33926;SDS011;20485;50.992;5.550;2023-04-01T01:35:03;10.95;;;1.75;;
33926;SDS011;20485;50.992;5.550;2023-04-01T01:37:45;11.18;;;1.83;;
33926;SDS011;20485;50.992;5.550;2023-04-01T01:40:12;10.50;;;1.80;;
33926;SDS011;20485;50.992;5.550;2023-04-01T01:42:41;9.27;;;1.30;;
33926;SDS011;20485;50.992;5.550;2023-04-01T01:45:11;17.25;;;1.58;;
33926;SDS011;20485;50.992;5.550;2023-04-01T01:47:39;5.47;;;1.50;;
33926;SDS011;20485;50.992;5.550;2023-04-01T01:50:06;7.43;;;1.77;;
33926;SDS011;20485;50.992;5.550;2023-04-01T01:52:34;7.20;;;1.27;;
33926;SDS011;20485;50.992;5.550;2023-04-01T01:55:00;6.40;;;1.20;;
33926;SDS011;20485;50.992;5.550;2023-04-01T01:57:26;2.60;;;0.93;;
33926;SDS011;20485;50.992;5.550;2023-04-01T01:59:57;6.63;;;1.27;;
33926;SDS011;20485;50.992;5.550;2023-04-01T02:02:29;3.53;;;1.27;;
33926;SDS011;20485;50.992;5.550;2023-04-01T02:04:57;7.35;;;0.98;;
33926;SDS011;20485;50.992;5.550;2023-04-01T02:07:25;2.33;;;0.90;;
33926;SDS011;20485;50.992;5.550;2023-04-01T02:09:55;6.68;;;1.15;;
33926;SDS011;20485;50.992;5.550;2023-04-01T02:12:21;7.10;;;1.02;;
33926;SDS011;20485;50.992;5.550;2023-04-01T02:15:03;1.98;;;0.93;;
33926;SDS011;20485;50.992;5.550;2023-04-01T02:17:33;3.50;;;0.70;;
33926;SDS011;20485;50.992;5.550;2023-04-01T02:20:06;4.22;;;0.90;;
33926;SDS011;20485;50.992;5.550;2023-04-01T02:22:39;11.20;;;1.08;;
33926;SDS011;20485;50.992;5.550;2023-04-01T02:25:09;8.30;;;1.00;;
33926;SDS011;20485;50.992;5.550;2023-04-01T02:27:38;4.32;;;0.82;;
33926;SDS011;20485;50.992;5.550;2023-04-01T02:30:05;10.05;;;1.30;;
33926;SDS011;20485;50.992;5.550;2023-04-01T02:32:32;3.50;;;1.02;;
33926;SDS011;20485;50.992;5.550;2023-04-01T02:35:00;3.35;;;1.10;;
33926;SDS011;20485;50.992;5.550;2023-04-01T02:37:30;1.13;;;1.00;;
33926;SDS011;20485;50.992;5.550;2023-04-01T02:40:06;3.45;;;1.48;;
33926;SDS011;20485;50.992;5.550;2023-04-01T02:42:33;2.67;;;1.10;;
33926;SDS011;20485;50.992;5.550;2023-04-01T02:44:59;9.80;;;1.48;;
33926;SDS011;20485;50.992;5.550;2023-04-01T02:47:25;2.90;;;1.00;;
33926;SDS011;20485;50.992;5.550;2023-04-01T02:49:51;3.90;;;1.13;;
33926;SDS011;20485;50.992;5.550;2023-04-01T02:52:23;4.10;;;1.25;;
33926;SDS011;20485;50.992;5.550;2023-04-01T02:54:52;2.85;;;1.20;;
33926;SDS011;20485;50.992;5.550;2023-04-01T02:57:20;3.15;;;0.95;;
33926;SDS011;20485;50.992;5.550;2023-04-01T02:59:46;6.97;;;1.30;;
33926;SDS011;20485;50.992;5.550;2023-04-01T03:02:12;3.05;;;0.90;;
33926;SDS011;20485;50.992;5.550;2023-04-01T03:04:38;4.75;;;1.20;;
33926;SDS011;20485;50.992;5.550;2023-04-01T03:07:04;7.30;;;2.10;;
33926;SDS011;20485;50.992;5.550;2023-04-01T03:09:30;4.60;;;1.40;;
33926;SDS011;20485;50.992;5.550;2023-04-01T03:11:55;3.38;;;1.30;;
33926;SDS011;20485;50.992;5.550;2023-04-01T03:14:24;2.42;;;1.30;;
33926;SDS011;20485;50.992;5.550;2023-04-01T03:16:50;2.08;;;1.30;;
33926;SDS011;20485;50.992;5.550;2023-04-01T03:19:16;4.10;;;1.65;;
33926;SDS011;20485;50.992;5.550;2023-04-01T03:22:00;5.38;;;1.60;;
33926;SDS011;20485;50.992;5.550;2023-04-01T03:24:26;3.90;;;1.33;;
33926;SDS011;20485;50.992;5.550;2023-04-01T03:26:51;6.28;;;1.60;;
33926;SDS011;20485;50.992;5.550;2023-04-01T03:29:17;4.15;;;1.60;;
33926;SDS011;20485;50.992;5.550;2023-04-01T03:31:43;6.50;;;1.90;;
33926;SDS011;20485;50.992;5.550;2023-04-01T03:34:09;4.20;;;2.15;;
33926;SDS011;20485;50.992;5.550;2023-04-01T03:36:35;3.88;;;2.55;;
33926;SDS011;20485;50.992;5.550;2023-04-01T03:39:01;8.07;;;1.98;;
33926;SDS011;20485;50.992;5.550;2023-04-01T03:41:28;5.32;;;2.78;;
33926;SDS011;20485;50.992;5.550;2023-04-01T03:44:03;5.35;;;2.20;;
33926;SDS011;20485;50.992;5.550;2023-04-01T03:46:29;8.70;;;2.08;;
33926;SDS011;20485;50.992;5.550;2023-04-01T03:48:54;3.60;;;2.42;;
33926;SDS011;20485;50.992;5.550;2023-04-01T03:51:20;9.70;;;2.58;;
33926;SDS011;20485;50.992;5.550;2023-04-01T03:53:46;7.32;;;2.50;;
33926;SDS011;20485;50.992;5.550;2023-04-01T03:56:12;7.25;;;2.40;;
33926;SDS011;20485;50.992;5.550;2023-04-01T03:58:38;9.05;;;2.92;;
33926;SDS011;20485;50.992;5.550;2023-04-01T04:01:12;6.97;;;2.40;;
33926;SDS011;20485;50.992;5.550;2023-04-01T04:03:39;5.40;;;2.38;;
33926;SDS011;20485;50.992;5.550;2023-04-01T04:06:05;5.25;;;2.10;;
33926;SDS011;20485;50.992;5.550;2023-04-01T04:08:34;5.53;;;2.05;;
33926;SDS011;20485;50.992;5.550;2023-04-01T04:11:00;6.22;;;1.83;;
33926;SDS011;20485;50.992;5.550;2023-04-01T04:13:26;3.42;;;2.03;;
33926;SDS011;20485;50.992;5.550;2023-04-01T04:15:51;16.10;;;3.58;;
33926;SDS011;20485;50.992;5.550;2023-04-01T04:18:17;2.25;;;1.92;;
33926;SDS011;20485;50.992;5.550;2023-04-01T04:20:45;4.60;;;2.10;;
33926;SDS011;20485;50.992;5.550;2023-04-01T04:23:13;6.85;;;2.60;;
33926;SDS011;20485;50.992;5.550;2023-04-01T04:25:39;4.00;;;2.33;;
33926;SDS011;20485;50.992;5.550;2023-04-01T04:28:05;6.72;;;2.13;;
33926;SDS011;20485;50.992;5.550;2023-04-01T04:30:30;5.80;;;2.58;;
33926;SDS011;20485;50.992;5.550;2023-04-01T04:32:56;4.13;;;2.13;;
33926;SDS011;20485;50.992;5.550;2023-04-01T04:35:21;5.07;;;2.25;;
33926;SDS011;20485;50.992;5.550;2023-04-01T04:37:47;4.40;;;2.10;;
33926;SDS011;20485;50.992;5.550;2023-04-01T04:40:13;6.32;;;2.30;;
33926;SDS011;20485;50.992;5.550;2023-04-01T04:42:39;5.18;;;2.08;;
33926;SDS011;20485;50.992;5.550;2023-04-01T04:45:05;4.75;;;2.33;;
33926;SDS011;20485;50.992;5.550;2023-04-01T04:47:31;4.32;;;2.25;;
33926;SDS011;20485;50.992;5.550;2023-04-01T04:49:57;6.50;;;2.22;;
33926;SDS011;20485;50.992;5.550;2023-04-01T04:52:24;6.13;;;2.25;;
33926;SDS011;20485;50.992;5.550;2023-04-01T04:54:49;4.00;;;2.47;;
33926;SDS011;20485;50.992;5.550;2023-04-01T04:57:15;4.88;;;2.00;;
33926;SDS011;20485;50.992;5.550;2023-04-01T04:59:41;4.25;;;1.95;;
33926;SDS011;20485;50.992;5.550;2023-04-01T05:02:06;4.82;;;1.77;;
33926;SDS011;20485;50.992;5.550;2023-04-01T05:04:35;9.77;;;2.70;;
33926;SDS011;20485;50.992;5.550;2023-04-01T05:07:01;2.90;;;1.70;;
33926;SDS011;20485;50.992;5.550;2023-04-01T05:09:28;5.45;;;1.98;;
33926;SDS011;20485;50.992;5.550;2023-04-01T05:11:53;6.07;;;2.70;;
33926;SDS011;20485;50.992;5.550;2023-04-01T05:14:19;7.25;;;2.58;;
33926;SDS011;20485;50.992;5.550;2023-04-01T05:16:46;8.55;;;2.92;;
33926;SDS011;20485;50.992;5.550;2023-04-01T05:19:12;5.57;;;2.80;;
33926;SDS011;20485;50.992;5.550;2023-04-01T05:21:37;6.75;;;3.03;;
33926;SDS011;20485;50.992;5.550;2023-04-01T05:24:03;6.45;;;2.63;;
33926;SDS011;20485;50.992;5.550;2023-04-01T05:26:33;7.78;;;2.95;;
33926;SDS011;20485;50.992;5.550;2023-04-01T05:28:58;10.40;;;3.13;;
33926;SDS011;20485;50.992;5.550;2023-04-01T05:31:24;8.57;;;3.92;;
33926;SDS011;20485;50.992;5.550;2023-04-01T05:33:50;7.70;;;3.60;;
33926;SDS011;20485;50.992;5.550;2023-04-01T05:36:16;8.32;;;4.43;;
33926;SDS011;20485;50.992;5.550;2023-04-01T05:38:42;5.97;;;3.70;;
33926;SDS011;20485;50.992;5.550;2023-04-01T05:41:10;11.43;;;3.75;;
33926;SDS011;20485;50.992;5.550;2023-04-01T05:43:37;12.90;;;4.30;;
33926;SDS011;20485;50.992;5.550;2023-04-01T05:46:04;13.68;;;4.80;;
33926;SDS011;20485;50.992;5.550;2023-04-01T05:48:30;11.65;;;4.68;;
33926;SDS011;20485;50.992;5.550;2023-04-01T05:50:56;11.60;;;5.35;;
33926;SDS011;20485;50.992;5.550;2023-04-01T05:53:21;10.57;;;5.07;;
33926;SDS011;20485;50.992;5.550;2023-04-01T05:55:47;13.23;;;5.65;;
33926;SDS011;20485;50.992;5.550;2023-04-01T05:58:13;14.23;;;5.35;;
33926;SDS011;20485;50.992;5.550;2023-04-01T06:00:39;9.95;;;4.75;;
33926;SDS011;20485;50.992;5.550;2023-04-01T06:03:05;9.40;;;4.97;;
33926;SDS011;20485;50.992;5.550;2023-04-01T06:05:35;8.82;;;5.15;;
33926;SDS011;20485;50.992;5.550;2023-04-01T06:08:25;11.05;;;4.60;;
33926;SDS011;20485;50.992;5.550;2023-04-01T06:16:12;9.32;;;4.70;;
33926;SDS011;20485;50.992;5.550;2023-04-01T06:25:01;9.82;;;4.32;;
33926;SDS011;20485;50.992;5.550;2023-04-01T06:44:35;4.75;;;2.92;;
33926;SDS011;20485;50.992;5.550;2023-04-01T06:47:23;6.90;;;2.65;;
33926;SDS011;20485;50.992;5.550;2023-04-01T06:55:00;6.25;;;2.55;;
33926;SDS011;20485;50.992;5.550;2023-04-01T07:00:15;3.50;;;2.53;;
33926;SDS011;20485;50.992;5.550;2023-04-01T07:03:29;4.25;;;2.67;;
33926;SDS011;20485;50.992;5.550;2023-04-01T07:06:11;4.25;;;2.42;;
33926;SDS011;20485;50.992;5.550;2023-04-01T07:08:41;13.88;;;4.13;;
33926;SDS011;20485;50.992;5.550;2023-04-01T07:11:35;4.38;;;2.95;;
33926;SDS011;20485;50.992;5.550;2023-04-01T07:14:34;6.25;;;3.08;;
33926;SDS011;20485;50.992;5.550;2023-04-01T07:17:15;2.67;;;2.47;;
33926;SDS011;20485;50.992;5.550;2023-04-01T07:19:49;4.70;;;2.80;;
33926;SDS011;20485;50.992;5.550;2023-04-01T07:25:01;2.88;;;2.60;;
33926;SDS011;20485;50.992;5.550;2023-04-01T07:27:36;3.47;;;2.80;;
33926;SDS011;20485;50.992;5.550;2023-04-01T07:30:02;2.05;;;1.85;;
33926;SDS011;20485;50.992;5.550;2023-04-01T07:32:45;7.10;;;1.77;;
33926;SDS011;20485;50.992;5.550;2023-04-01T07:35:21;2.20;;;1.80;;
33926;SDS011;20485;50.992;5.550;2023-04-01T07:40:56;3.42;;;1.85;;
33926;SDS011;20485;50.992;5.550;2023-04-01T07:47:05;1.33;;;1.20;;
33926;SDS011;20485;50.992;5.550;2023-04-01T07:52:35;5.05;;;2.15;;
33926;SDS011;20485;50.992;5.550;2023-04-01T07:55:24;2.67;;;2.15;;
33926;SDS011;20485;50.992;5.550;2023-04-01T08:11:28;1.20;;;1.10;;
33926;SDS011;20485;50.992;5.550;2023-04-01T08:20:01;1.20;;;1.10;;
33926;SDS011;20485;50.992;5.550;2023-04-01T08:22:51;1.55;;;1.35;;
33926;SDS011;20485;50.992;5.550;2023-04-01T08:25:33;3.28;;;1.27;;
33926;SDS011;20485;50.992;5.550;2023-04-01T08:28:20;1.50;;;1.40;;
33926;SDS011;20485;50.992;5.550;2023-04-01T08:31:12;1.67;;;1.45;;
33926;SDS011;20485;50.992;5.550;2023-04-01T08:33:53;1.38;;;1.17;;
33926;SDS011;20485;50.992;5.550;2023-04-01T08:36:33;1.80;;;1.10;;
33926;SDS011;20485;50.992;5.550;2023-04-01T09:21:42;3.30;;;2.45;;
33926;SDS011;20485;50.992;5.550;2023-04-01T09:27:28;5.37;;;2.27;;
33926;SDS011;20485;50.992;5.550;2023-04-01T09:44:14;6.47;;;2.65;;
33926;SDS011;20485;50.992;5.550;2023-04-01T09:52:47;4.80;;;3.33;;
33926;SDS011;20485;50.992;5.550;2023-04-01T10:16:45;2.95;;;2.55;;
33926;SDS011;20485;50.992;5.550;2023-04-01T10:19:39;3.53;;;2.85;;
33926;SDS011;20485;50.992;5.550;2023-04-01T10:24:55;5.57;;;2.97;;
33926;SDS011;20485;50.992;5.550;2023-04-01T11:22:16;3.40;;;2.08;;
33926;SDS011;20485;50.992;5.550;2023-04-01T12:09:21;4.20;;;3.45;;
33926;SDS011;20485;50.992;5.550;2023-04-01T13:01:04;10.25;;;6.03;;
33926;SDS011;20485;50.992;5.550;2023-04-01T13:26:13;7.88;;;5.78;;
33926;SDS011;20485;50.992;5.550;2023-04-01T13:28:29;8.25;;;5.93;;
33926;SDS011;20485;50.992;5.550;2023-04-01T13:31:13;5.43;;;4.90;;
33926;SDS011;20485;50.992;5.550;2023-04-01T13:39:20;8.88;;;5.43;;
33926;SDS011;20485;50.992;5.550;2023-04-01T13:41:57;6.45;;;5.10;;
33926;SDS011;20485;50.992;5.550;2023-04-01T13:44:55;7.40;;;5.32;;
33926;SDS011;20485;50.992;5.550;2023-04-01T13:53:04;6.35;;;4.60;;
33926;SDS011;20485;50.992;5.550;2023-04-01T13:58:29;5.63;;;4.32;;
